createdAt,value
2023-02-14T00:01:28.201Z,71.46
2023-02-14T00:04:00.902Z,71.27
2023-02-14T00:06:37.109Z,71.49
2023-02-14T00:09:10.792Z,71.39
2023-02-14T00:11:41.540Z,71.37
2023-02-14T00:14:30.925Z,71.77
2023-02-14T00:17:01.174Z,71.51
2023-02-14T00:19:32.012Z,71.71
2023-02-14T00:22:03.326Z,71.29
2023-02-14T00:24:33.640Z,71.44
2023-02-14T00:27:03.836Z,71.52
2023-02-14T00:29:34.102Z,71.17
2023-02-14T00:32:04.362Z,71.29
2023-02-14T00:34:36.821Z,71.28
2023-02-14T00:37:07.057Z,71.41
2023-02-14T00:39:37.302Z,71.52
2023-02-14T00:42:07.543Z,71.14
2023-02-14T00:44:38.310Z,71.32
2023-02-14T00:47:08.526Z,70.99
2023-02-14T00:49:38.666Z,71.15
2023-02-14T00:52:08.984Z,70.65
2023-02-14T00:54:39.100Z,70.73
2023-02-14T00:57:09.288Z,70.43
2023-02-14T00:59:39.545Z,70.05
2023-02-14T01:02:09.741Z,69.93
2023-02-14T01:04:40.040Z,70.11
2023-02-14T01:07:10.238Z,69.91
2023-02-14T01:09:40.428Z,69.57
2023-02-14T01:12:10.501Z,69.87
2023-02-14T01:14:40.641Z,69.36
2023-02-14T01:17:10.734Z,70.18
2023-02-14T01:19:42.662Z,69.60
2023-02-14T01:22:12.863Z,69.68
2023-02-14T01:24:42.952Z,69.58
2023-02-14T01:27:13.198Z,69.94
2023-02-14T01:29:43.311Z,69.84
2023-02-14T01:32:13.486Z,69.71
2023-02-14T01:34:43.732Z,69.76
2023-02-14T01:37:14.417Z,69.70
2023-02-14T01:39:44.621Z,69.72
2023-02-14T01:42:14.794Z,69.98
2023-02-14T01:44:44.934Z,69.66
2023-02-14T01:47:16.502Z,69.67
2023-02-14T01:49:53.356Z,69.86
2023-02-14T01:52:37.764Z,69.40
2023-02-14T01:55:12.671Z,69.40
2023-02-14T01:57:51.184Z,69.32
2023-02-14T02:00:40.743Z,69.85
2023-02-14T02:03:13.270Z,69.25
2023-02-14T02:05:48.772Z,69.66
2023-02-14T02:08:19.070Z,69.50
2023-02-14T02:10:49.263Z,69.80
2023-02-14T02:13:21.097Z,69.67
2023-02-14T02:16:04.771Z,70.14
2023-02-14T02:19:22.596Z,69.11
2023-02-14T02:22:21.649Z,69.61
2023-02-14T02:25:17.601Z,69.75
2023-02-14T02:27:53.379Z,69.15
2023-02-14T02:30:55.792Z,69.21
2023-02-14T02:33:53.957Z,69.22
2023-02-14T02:36:42.568Z,70.02
2023-02-14T02:39:30.848Z,69.49
2023-02-14T02:42:22.272Z,68.96
2023-02-14T02:44:58.805Z,69.12
2023-02-14T02:47:32.539Z,69.16
2023-02-14T02:50:32.233Z,69.37
2023-02-14T02:53:21.519Z,69.19
2023-02-14T02:56:28.321Z,70.02
2023-02-14T02:59:18.554Z,69.83
2023-02-14T03:02:05.402Z,69.55
2023-02-14T03:04:53.737Z,69.90
2023-02-14T03:07:45.484Z,69.30
2023-02-14T03:10:20.162Z,69.17
2023-02-14T03:13:14.981Z,69.63
2023-02-14T03:15:54.759Z,69.90
2023-02-14T03:18:41.972Z,69.92
2023-02-14T03:21:33.861Z,69.49
2023-02-14T03:24:10.354Z,69.68
2023-02-14T03:26:50.049Z,69.94
2023-02-14T03:29:43.253Z,70.35
2023-02-14T03:32:13.582Z,70.02
2023-02-14T03:34:55.276Z,70.32
2023-02-14T03:37:39.618Z,70.24
2023-02-14T03:40:36.569Z,70.74
2023-02-14T03:43:19.669Z,70.75
2023-02-14T03:45:56.738Z,70.56
2023-02-14T03:48:28.619Z,70.25
2023-02-14T03:51:00.482Z,70.28
2023-02-14T03:53:35.683Z,70.60
2023-02-14T03:56:29.473Z,71.22
2023-02-14T03:59:06.441Z,70.63
2023-02-14T04:02:07.136Z,71.33
2023-02-14T04:04:45.181Z,70.84
2023-02-14T04:07:19.321Z,71.30
2023-02-14T04:09:50.472Z,71.49
2023-02-14T04:12:32.230Z,71.76
2023-02-14T04:15:07.940Z,71.18
2023-02-14T04:17:56.729Z,71.29
2023-02-14T04:20:27.520Z,71.75
2023-02-14T04:22:57.874Z,71.25
2023-02-14T04:25:28.201Z,71.57
2023-02-14T04:27:58.382Z,71.58
2023-02-14T04:30:28.624Z,71.38
2023-02-14T04:32:58.840Z,71.61
2023-02-14T04:35:28.966Z,71.22
2023-02-14T04:37:59.054Z,71.56
2023-02-14T04:40:29.802Z,71.33
2023-02-14T04:43:01.633Z,71.55
2023-02-14T04:45:31.748Z,71.24
2023-02-14T04:48:01.996Z,71.78
2023-02-14T04:50:32.180Z,71.20
2023-02-14T04:53:02.653Z,71.96
2023-02-14T04:55:33.202Z,71.33
2023-02-14T04:58:03.419Z,71.21
2023-02-14T05:00:33.651Z,70.85
2023-02-14T05:03:03.917Z,71.02
2023-02-14T05:05:34.035Z,71.23
2023-02-14T05:08:04.191Z,72.01
2023-02-14T05:10:35.695Z,72.08
2023-02-14T05:13:05.850Z,71.67
2023-02-14T05:15:38.377Z,71.82
2023-02-14T05:18:10.381Z,71.29
2023-02-14T05:20:40.590Z,71.42
2023-02-14T05:23:13.897Z,71.83
2023-02-14T05:25:44.803Z,71.62
2023-02-14T05:28:15.350Z,71.55
2023-02-14T05:30:46.114Z,71.38
2023-02-14T05:33:16.367Z,71.65
2023-02-14T05:35:46.574Z,72.34
2023-02-14T05:38:17.059Z,72.28
2023-02-14T05:40:47.161Z,72.01
2023-02-14T05:43:17.356Z,71.37
2023-02-14T05:45:48.843Z,71.28
2023-02-14T05:48:19.087Z,71.64
2023-02-14T05:50:49.299Z,71.85
2023-02-14T05:53:19.459Z,72.34
2023-02-14T05:55:49.553Z,72.49
2023-02-14T05:58:19.642Z,71.87
2023-02-14T06:00:49.777Z,72.27
2023-02-14T06:03:19.976Z,71.70
2023-02-14T06:05:50.291Z,71.80
2023-02-14T06:08:20.469Z,71.60
2023-02-14T06:10:50.692Z,71.80
2023-02-14T06:13:20.881Z,72.21
2023-02-14T06:15:51.031Z,72.28
2023-02-14T06:18:21.108Z,72.58
2023-02-14T06:20:53.514Z,72.82
2023-02-14T06:23:23.599Z,72.82
2023-02-14T06:25:53.963Z,73.22
2023-02-14T06:28:24.138Z,73.44
2023-02-14T06:30:54.446Z,73.18
2023-02-14T06:33:24.686Z,73.47
2023-02-14T06:35:54.935Z,73.67
2023-02-14T06:38:25.036Z,73.31
2023-02-14T06:40:55.188Z,73.15
2023-02-14T06:43:25.423Z,73.26
2023-02-14T06:45:55.623Z,73.03
2023-02-14T06:48:25.904Z,72.91
2023-02-14T06:50:56.090Z,73.43
2023-02-14T06:53:26.274Z,73.13
2023-02-14T06:55:56.406Z,72.84
2023-02-14T06:58:26.835Z,72.86
2023-02-14T07:00:58.193Z,73.18
2023-02-14T07:03:28.672Z,73.19
2023-02-14T07:05:58.863Z,72.66
2023-02-14T07:08:28.934Z,72.51
2023-02-14T07:10:59.840Z,73.12
2023-02-14T07:13:30.150Z,72.72
2023-02-14T07:16:00.616Z,73.43
2023-02-14T07:18:30.764Z,73.19
2023-02-14T07:21:01.290Z,73.10
2023-02-14T07:23:31.934Z,73.37
2023-02-14T07:26:02.239Z,72.97
2023-02-14T07:28:33.837Z,73.53
2023-02-14T07:31:04.433Z,73.15
2023-02-14T07:33:34.825Z,73.37
2023-02-14T07:36:06.556Z,73.04
2023-02-14T07:38:37.144Z,72.87
2023-02-14T07:41:07.300Z,73.51
2023-02-14T07:43:37.409Z,73.74
2023-02-14T07:46:07.570Z,73.33
2023-02-14T07:48:39.406Z,73.91
2023-02-14T07:51:10.115Z,73.72
2023-02-14T07:53:41.333Z,73.46
2023-02-14T07:56:11.450Z,73.68
2023-02-14T07:58:41.668Z,73.62
2023-02-14T08:01:11.857Z,73.78
2023-02-14T08:03:44.575Z,74.04
2023-02-14T08:06:14.728Z,73.68
2023-02-14T08:08:45.710Z,74.18
2023-02-14T08:11:35.988Z,73.97
2023-02-14T08:14:06.206Z,74.32
2023-02-14T08:16:38.267Z,74.18
2023-02-14T08:19:08.698Z,74.21
2023-02-14T08:21:38.879Z,73.94
2023-02-14T08:24:09.048Z,74.06
2023-02-14T08:26:39.223Z,74.22
2023-02-14T08:29:09.355Z,74.46
2023-02-14T08:31:39.582Z,74.55
2023-02-14T08:34:09.835Z,74.44
2023-02-14T08:36:40.855Z,74.22
2023-02-14T08:39:11.000Z,74.33
2023-02-14T08:41:41.216Z,74.27
2023-02-14T08:44:11.716Z,74.45
2023-02-14T08:46:41.909Z,73.96
2023-02-14T08:49:12.123Z,74.08
2023-02-14T08:51:42.487Z,74.23
2023-02-14T08:54:12.905Z,74.42
2023-02-14T08:56:43.117Z,74.09
2023-02-14T08:59:13.546Z,74.20
2023-02-14T09:01:43.711Z,74.20
2023-02-14T09:04:13.989Z,73.87
2023-02-14T09:06:44.284Z,73.97
2023-02-14T09:09:14.473Z,74.00
2023-02-14T09:11:44.707Z,73.85
2023-02-14T09:14:16.382Z,74.05
2023-02-14T09:16:46.629Z,73.84
2023-02-14T09:19:19.665Z,73.79
2023-02-14T09:21:49.846Z,73.88
2023-02-14T09:24:20.179Z,73.96
2023-02-14T09:26:50.318Z,73.79
2023-02-14T09:29:20.477Z,73.34
2023-02-14T09:31:56.953Z,73.78
2023-02-14T09:34:47.658Z,73.68
2023-02-14T09:37:18.005Z,73.83
2023-02-14T09:39:48.158Z,73.83
2023-02-14T09:42:27.041Z,73.62
2023-02-14T09:45:05.877Z,73.77
2023-02-14T09:47:44.573Z,73.87
2023-02-14T09:50:40.524Z,74.50
2023-02-14T09:53:16.701Z,73.83
2023-02-14T09:55:59.093Z,73.94
2023-02-14T09:58:52.105Z,74.24
2023-02-14T10:01:54.636Z,74.30
2023-02-14T10:05:17.885Z,74.52
2023-02-14T10:07:59.358Z,73.62
2023-02-14T10:10:40.028Z,73.54
2023-02-14T10:14:07.289Z,73.80
2023-02-14T10:17:03.265Z,73.61
2023-02-14T10:19:52.530Z,73.34
2023-02-14T10:22:29.614Z,73.17
2023-02-14T10:25:02.799Z,73.80
2023-02-14T10:27:45.079Z,73.18
2023-02-14T10:30:24.958Z,73.30
2023-02-14T10:33:08.992Z,73.39
2023-02-14T10:35:45.234Z,73.50
2023-02-14T10:38:45.373Z,73.36
2023-02-14T10:41:40.991Z,73.42
2023-02-14T10:44:12.938Z,73.10
2023-02-14T10:46:56.617Z,73.15
2023-02-14T10:49:38.141Z,73.35
2023-02-14T10:52:14.164Z,72.74
2023-02-14T10:54:50.958Z,72.88
2023-02-14T10:57:24.238Z,72.75
2023-02-14T10:59:59.768Z,72.95
2023-02-14T11:02:41.582Z,72.35
2023-02-14T11:05:28.562Z,71.29
2023-02-14T11:08:02.192Z,70.90
2023-02-14T11:10:34.369Z,70.69
2023-02-14T11:13:37.706Z,70.10
2023-02-14T11:16:11.517Z,69.41
2023-02-14T11:18:41.938Z,68.74
2023-02-14T11:21:15.107Z,68.08
2023-02-14T11:23:49.765Z,67.40
2023-02-14T11:26:26.172Z,66.91
2023-02-14T11:29:00.531Z,66.58
2023-02-14T11:31:34.576Z,65.77
2023-02-14T11:34:19.348Z,65.96
2023-02-14T11:36:49.743Z,66.28
2023-02-14T11:39:27.927Z,65.54
2023-02-14T11:42:01.035Z,65.31
2023-02-14T11:44:33.360Z,65.13
2023-02-14T11:47:28.274Z,63.23
2023-02-14T11:50:12.814Z,63.36
2023-02-14T11:52:51.196Z,62.65
2023-02-14T11:55:28.343Z,62.07
2023-02-14T11:57:59.139Z,62.18
2023-02-14T12:00:31.552Z,60.95
2023-02-14T12:03:05.884Z,59.30
2023-02-14T12:05:46.438Z,54.50
2023-02-14T12:08:25.351Z,55.83
2023-02-14T12:11:04.872Z,53.33
2023-02-14T12:13:35.147Z,58.25
2023-02-14T12:16:19.800Z,57.57
2023-02-14T12:19:00.851Z,55.75
2023-02-14T12:21:30.958Z,56.39
2023-02-14T12:24:23.886Z,54.76
2023-02-14T12:26:58.753Z,54.03
2023-02-14T12:29:50.270Z,49.67
2023-02-14T12:32:25.496Z,52.53
2023-02-14T12:35:19.793Z,46.59
2023-02-14T12:38:35.724Z,46.63
2023-02-14T12:41:11.731Z,48.62
2023-02-14T12:44:03.278Z,44.17
2023-02-14T12:47:11.774Z,46.09
2023-02-14T12:49:53.834Z,47.73
2023-02-14T12:52:32.778Z,44.80
2023-02-14T12:55:28.617Z,40.75
2023-02-14T12:58:23.937Z,43.24
2023-02-14T13:01:24.773Z,39.01
2023-02-14T13:04:18.000Z,48.03
2023-02-14T13:06:56.570Z,48.14
2023-02-14T13:09:27.600Z,47.60
2023-02-14T13:12:29.851Z,38.78
2023-02-14T13:15:24.212Z,41.73
2023-02-14T13:18:17.432Z,43.37
2023-02-14T13:21:00.087Z,41.00
2023-02-14T13:23:43.141Z,39.37
2023-02-14T13:26:22.697Z,40.57
2023-02-14T13:28:57.614Z,43.58
2023-02-14T13:31:28.678Z,45.33
2023-02-14T13:34:02.213Z,42.19
2023-02-14T13:36:33.212Z,44.48
2023-02-14T13:39:04.126Z,43.61
2023-02-14T13:41:34.630Z,43.75
2023-02-14T13:44:05.680Z,44.65
2023-02-14T13:46:35.773Z,45.43
2023-02-14T13:49:15.010Z,45.56
2023-02-14T13:51:50.523Z,46.22
2023-02-14T13:54:48.341Z,45.96
2023-02-14T13:57:36.897Z,47.22
2023-02-14T14:00:19.176Z,47.66
2023-02-14T14:02:54.407Z,48.55
2023-02-14T14:05:30.774Z,49.03
2023-02-14T14:08:23.508Z,49.55
2023-02-14T14:10:55.148Z,50.03
2023-02-14T14:13:40.424Z,50.49
2023-02-14T14:16:28.903Z,50.81
2023-02-14T14:19:10.548Z,50.91
2023-02-14T14:22:00.153Z,50.84
2023-02-14T14:24:33.075Z,51.27
2023-02-14T14:27:25.091Z,52.09
2023-02-14T14:29:58.649Z,51.74
2023-02-14T14:32:37.996Z,52.28
2023-02-14T14:35:23.397Z,52.68
2023-02-14T14:37:56.559Z,52.14
2023-02-14T14:40:31.735Z,52.77
2023-02-14T14:43:21.861Z,53.52
2023-02-14T14:45:53.760Z,53.04
2023-02-14T14:48:29.238Z,54.11
2023-02-14T14:50:59.858Z,54.05
2023-02-14T14:53:37.946Z,54.43
2023-02-14T14:56:14.185Z,54.67
2023-02-14T14:58:44.456Z,54.63
2023-02-14T15:01:35.953Z,55.75
2023-02-14T15:04:12.551Z,55.64
2023-02-14T15:06:43.288Z,54.58
2023-02-14T15:09:23.505Z,54.39
2023-02-14T15:12:12.497Z,54.17
2023-02-14T15:14:46.497Z,54.25
2023-02-14T15:17:25.862Z,53.92
2023-02-14T15:20:01.619Z,54.03
2023-02-14T15:22:41.621Z,54.97
2023-02-14T15:25:18.228Z,55.41
2023-02-14T15:27:48.819Z,55.58
2023-02-14T15:30:33.959Z,56.97
2023-02-14T15:33:06.606Z,56.87
2023-02-14T15:35:44.359Z,57.63
2023-02-14T15:38:15.201Z,57.85
2023-02-14T15:40:45.851Z,58.43
2023-02-14T15:43:27.933Z,59.17
2023-02-14T15:46:24.230Z,61.35
2023-02-14T15:48:58.757Z,59.07
2023-02-14T15:51:32.863Z,59.53
2023-02-14T15:54:18.422Z,60.03
2023-02-14T15:56:52.773Z,60.22
2023-02-14T15:59:31.152Z,60.76
2023-02-14T16:02:36.863Z,61.87
2023-02-14T16:05:16.020Z,60.70
2023-02-14T16:08:05.831Z,62.00
2023-02-14T16:10:38.378Z,61.22
2023-02-14T16:13:14.992Z,61.93
2023-02-14T16:16:09.644Z,63.83
2023-02-14T16:18:43.762Z,61.61
2023-02-14T16:21:29.001Z,62.92
2023-02-14T16:24:08.273Z,62.76
2023-02-14T16:26:43.583Z,62.85
2023-02-14T16:29:16.633Z,62.39
2023-02-14T16:32:15.989Z,64.08
2023-02-14T16:34:47.704Z,62.53
2023-02-14T16:37:25.388Z,63.40
2023-02-14T16:39:57.893Z,62.78
2023-02-14T16:42:28.189Z,62.79
2023-02-14T16:44:58.576Z,63.04
2023-02-14T16:47:28.742Z,62.82
2023-02-14T16:49:58.915Z,63.11
2023-02-14T16:52:29.757Z,63.28
2023-02-14T16:55:00.015Z,63.25
2023-02-14T16:57:35.014Z,63.64
2023-02-14T17:00:06.761Z,63.61
2023-02-14T17:02:37.529Z,63.42
2023-02-14T17:05:07.839Z,63.85
2023-02-14T17:07:39.569Z,63.70
2023-02-14T17:10:15.816Z,63.74
2023-02-14T17:12:48.477Z,63.86
2023-02-14T17:15:21.677Z,63.62
2023-02-14T17:17:55.597Z,64.08
2023-02-14T17:20:25.869Z,63.86
2023-02-14T17:22:56.864Z,63.82
2023-02-14T17:25:27.002Z,63.86
2023-02-14T17:27:57.469Z,63.90
2023-02-14T17:30:27.949Z,63.79
2023-02-14T17:32:58.317Z,63.97
2023-02-14T17:35:28.506Z,64.02
2023-02-14T17:37:58.621Z,64.30
2023-02-14T17:40:29.587Z,64.24
2023-02-14T17:43:00.537Z,64.34
2023-02-14T17:45:30.701Z,64.28
2023-02-14T17:48:02.194Z,64.21
2023-02-14T17:50:32.447Z,64.45
2023-02-14T17:53:02.985Z,64.33
2023-02-14T17:55:36.652Z,64.42
2023-02-14T17:58:06.965Z,64.50
2023-02-14T18:00:37.328Z,64.65
2023-02-14T18:03:07.852Z,64.67
2023-02-14T18:05:38.187Z,64.44
2023-02-14T18:08:15.901Z,64.64
2023-02-14T18:10:49.420Z,64.70
2023-02-14T18:13:23.455Z,64.72
2023-02-14T18:15:56.712Z,64.66
2023-02-14T18:18:30.628Z,64.71
2023-02-14T18:21:09.177Z,64.72
2023-02-14T18:23:45.385Z,65.05
2023-02-14T18:26:20.603Z,64.92
2023-02-14T18:28:54.073Z,64.79
2023-02-14T18:31:26.523Z,65.07
2023-02-14T18:33:57.069Z,65.28
2023-02-14T18:36:28.087Z,65.32
2023-02-14T18:38:59.546Z,65.29
2023-02-14T18:41:30.327Z,65.45
2023-02-14T18:44:01.868Z,65.69
2023-02-14T18:46:36.157Z,65.33
2023-02-14T18:49:08.511Z,65.27
2023-02-14T18:51:41.661Z,65.29
2023-02-14T18:54:11.999Z,65.37
2023-02-14T18:56:42.144Z,65.50
2023-02-14T18:59:13.665Z,65.39
2023-02-14T19:01:45.315Z,65.49
2023-02-14T19:04:17.278Z,65.73
2023-02-14T19:06:47.417Z,65.86
2023-02-14T19:13:27.403Z,65.48
2023-02-14T19:15:57.375Z,65.52
2023-02-14T19:18:27.562Z,65.55
2023-02-14T19:20:57.703Z,65.80
2023-02-14T19:23:28.009Z,65.62
2023-02-14T19:25:58.186Z,65.85
2023-02-14T19:28:28.378Z,65.75
2023-02-14T19:30:59.634Z,65.90
2023-02-14T19:33:29.965Z,65.80
2023-02-14T19:36:05.736Z,66.04
2023-02-14T19:38:36.256Z,65.86
2023-02-14T19:41:07.190Z,65.55
2023-02-14T19:43:37.324Z,65.97
2023-02-14T19:46:07.583Z,66.05
2023-02-14T19:48:37.650Z,66.08
2023-02-14T19:51:07.978Z,66.03
2023-02-14T19:53:39.727Z,65.92
2023-02-14T19:56:12.830Z,65.96
2023-02-14T19:58:43.807Z,66.10
2023-02-14T20:01:42.793Z,66.78
2023-02-14T20:04:18.244Z,65.85
2023-02-14T20:06:49.767Z,65.83
2023-02-14T20:09:24.375Z,66.04
2023-02-14T20:11:57.726Z,66.02
2023-02-14T20:14:38.426Z,65.99
2023-02-14T20:17:15.176Z,66.04
2023-02-14T20:19:45.494Z,66.13
2023-02-14T20:22:15.793Z,66.30
2023-02-14T20:24:46.310Z,66.17
2023-02-14T20:27:16.838Z,66.31
2023-02-14T20:29:47.185Z,66.35
2023-02-14T20:32:18.375Z,66.09
2023-02-14T20:34:49.237Z,66.36
2023-02-14T20:37:19.660Z,66.31
2023-02-14T20:39:50.060Z,66.30
2023-02-14T20:42:20.606Z,66.14
2023-02-14T20:44:51.025Z,66.30
2023-02-14T20:47:21.470Z,66.32
2023-02-14T20:49:51.645Z,66.25
2023-02-14T20:52:27.983Z,66.15
2023-02-14T20:54:58.136Z,66.68
2023-02-14T20:57:29.738Z,66.41
2023-02-14T20:59:59.967Z,66.33
2023-02-14T21:02:30.104Z,66.38
2023-02-14T21:05:00.486Z,66.44
2023-02-14T21:07:31.032Z,66.49
2023-02-14T21:10:01.174Z,66.40
2023-02-14T21:12:31.314Z,66.39
2023-02-14T21:15:01.411Z,66.58
2023-02-14T21:17:31.550Z,66.75
2023-02-14T21:20:01.665Z,66.82
2023-02-14T21:22:32.165Z,66.66
2023-02-14T21:25:02.929Z,66.78
2023-02-14T21:27:33.311Z,66.50
2023-02-14T21:30:03.945Z,66.54
2023-02-14T21:32:34.192Z,66.19
2023-02-14T21:35:05.532Z,66.56
2023-02-14T21:37:35.688Z,66.31
2023-02-14T21:40:07.598Z,66.38
2023-02-14T21:42:37.750Z,66.95
2023-02-14T21:45:26.980Z,67.12
2023-02-14T21:48:17.423Z,66.67
2023-02-14T21:50:47.538Z,66.45
2023-02-14T21:53:18.620Z,66.54
2023-02-14T21:55:48.745Z,66.72
2023-02-14T21:58:19.016Z,66.96
2023-02-14T22:00:49.201Z,66.53
2023-02-14T22:03:19.405Z,66.56
2023-02-14T22:05:49.548Z,66.41
2023-02-14T22:08:19.692Z,66.65
2023-02-14T22:10:49.818Z,66.67
2023-02-14T22:13:19.923Z,66.84
2023-02-14T22:15:50.325Z,66.95
2023-02-14T22:18:20.859Z,66.80
2023-02-14T22:20:54.979Z,66.78
2023-02-14T22:23:28.896Z,66.93
2023-02-14T22:26:15.129Z,67.08
2023-02-14T22:28:47.762Z,67.19
2023-02-14T22:31:19.571Z,67.16
2023-02-14T22:33:50.303Z,67.17
2023-02-14T22:36:20.831Z,66.88
2023-02-14T22:38:50.995Z,67.02
2023-02-14T22:41:23.636Z,67.15
2023-02-14T22:43:54.430Z,67.23
2023-02-14T22:46:27.348Z,67.16
2023-02-14T22:48:58.311Z,66.92
2023-02-14T22:51:34.318Z,67.10
2023-02-14T22:54:09.345Z,66.99
2023-02-14T22:56:45.078Z,67.36
2023-02-14T22:59:24.331Z,67.61
2023-02-14T23:01:54.867Z,67.33
2023-02-14T23:04:26.833Z,67.05
2023-02-14T23:06:57.191Z,67.07
2023-02-14T23:09:29.248Z,66.92
2023-02-14T23:11:59.432Z,67.26
2023-02-14T23:14:48.280Z,67.33
2023-02-14T23:17:36.994Z,67.23
2023-02-14T23:20:27.724Z,67.07
2023-02-14T23:22:57.877Z,67.54
2023-02-14T23:25:27.997Z,67.74
2023-02-14T23:27:58.206Z,67.58
2023-02-14T23:30:28.546Z,67.33
2023-02-14T23:32:58.688Z,67.54
2023-02-14T23:35:28.845Z,67.73
2023-02-14T23:37:58.899Z,67.40
2023-02-14T23:40:29.035Z,67.99
2023-02-14T23:42:59.127Z,67.42
2023-02-14T23:45:35.173Z,67.58
2023-02-14T23:48:05.713Z,67.66
2023-02-14T23:50:35.933Z,67.86
2023-02-14T23:53:06.067Z,67.73
2023-02-14T23:55:36.468Z,67.66
2023-02-14T23:58:06.777Z,67.43
